createdAt,value
2023-03-11T00:01:18.765Z,5.83
2023-03-11T00:03:48.907Z,5.40
2023-03-11T00:06:18.128Z,4.50
2023-03-11T00:08:47.197Z,4.37
2023-03-11T00:11:17.737Z,5.77
2023-03-11T00:13:46.748Z,4.60
2023-03-11T00:16:15.798Z,5.03
2023-03-11T00:18:44.883Z,5.13
2023-03-11T00:21:17.384Z,6.43
2023-03-11T00:23:47.190Z,6.07
2023-03-11T00:26:17.641Z,6.17
2023-03-11T00:28:48.446Z,5.93
2023-03-11T00:31:17.641Z,6.53
2023-03-11T00:33:46.824Z,7.30
2023-03-11T00:36:25.143Z,6.70
2023-03-11T00:38:54.419Z,6.13
2023-03-11T00:41:24.938Z,6.67
2023-03-11T00:43:53.957Z,6.77
2023-03-11T00:46:23.078Z,7.77
2023-03-11T00:48:52.836Z,6.47
2023-03-11T00:51:22.007Z,7.07
2023-03-11T00:53:51.112Z,7.67
2023-03-11T00:56:20.663Z,6.73
2023-03-11T00:58:51.101Z,5.53
2023-03-11T01:01:21.379Z,8.13
2023-03-11T01:03:50.961Z,6.97
2023-03-11T01:06:20.080Z,6.57
2023-03-11T01:08:49.098Z,6.73
2023-03-11T01:11:18.978Z,7.80
2023-03-11T01:13:48.209Z,7.13
2023-03-11T01:16:18.664Z,6.57
2023-03-11T01:18:47.853Z,7.83
2023-03-11T01:21:17.038Z,7.40
2023-03-11T01:23:46.317Z,7.43
2023-03-11T01:26:15.718Z,7.27
2023-03-11T01:28:44.834Z,7.63
2023-03-11T01:31:14.050Z,7.40
2023-03-11T01:33:44.499Z,6.53
2023-03-11T01:36:14.635Z,7.47
2023-03-11T01:38:43.691Z,6.73
2023-03-11T01:41:13.694Z,7.47
2023-03-11T01:43:51.113Z,7.90
2023-03-11T01:46:26.246Z,6.80
2023-03-11T01:48:58.559Z,6.53
2023-03-11T01:51:33.798Z,7.43
2023-03-11T01:54:06.365Z,7.17
2023-03-11T01:56:36.460Z,6.47
2023-03-11T01:59:07.231Z,6.33
2023-03-11T02:01:38.131Z,6.63
2023-03-11T02:04:08.846Z,6.87
2023-03-11T02:06:38.700Z,7.23
2023-03-11T02:09:08.645Z,7.70
2023-03-11T02:11:37.834Z,6.57
2023-03-11T02:14:09.873Z,6.20
2023-03-11T02:16:39.177Z,5.83
2023-03-11T02:19:19.890Z,6.23
2023-03-11T02:21:49.926Z,7.17
2023-03-11T02:24:25.189Z,7.33
2023-03-11T02:26:59.200Z,6.77
2023-03-11T02:29:30.328Z,6.67
2023-03-11T02:32:02.477Z,5.73
2023-03-11T02:34:34.180Z,7.00
2023-03-11T02:37:07.217Z,7.23
2023-03-11T02:39:38.306Z,5.97
2023-03-11T02:42:13.990Z,6.83
2023-03-11T02:44:48.000Z,6.57
2023-03-11T02:47:17.614Z,6.90
2023-03-11T02:49:46.832Z,6.53
2023-03-11T02:52:15.937Z,4.77
2023-03-11T02:54:44.941Z,5.57
2023-03-11T02:57:15.333Z,6.73
2023-03-11T02:59:44.362Z,6.30
2023-03-11T03:02:15.582Z,5.17
2023-03-11T03:04:44.996Z,6.10
2023-03-11T03:07:14.058Z,6.80
2023-03-11T03:09:43.191Z,6.40
2023-03-11T03:12:12.411Z,5.57
2023-03-11T03:14:42.975Z,4.57
2023-03-11T03:17:12.914Z,4.37
2023-03-11T03:19:42.078Z,5.23
2023-03-11T03:22:11.248Z,5.10
2023-03-11T03:24:40.286Z,5.57
2023-03-11T03:27:09.476Z,5.37
2023-03-11T03:29:39.114Z,5.10
2023-03-11T03:32:09.968Z,5.70
2023-03-11T03:34:39.152Z,4.53
2023-03-11T03:37:08.204Z,4.83
2023-03-11T03:39:37.260Z,4.70
2023-03-11T03:42:06.857Z,4.47
2023-03-11T03:44:39.013Z,4.60
2023-03-11T03:47:09.579Z,5.13
2023-03-11T03:49:39.272Z,3.73
2023-03-11T03:52:10.351Z,4.83
2023-03-11T03:54:40.724Z,5.63
2023-03-11T03:57:10.206Z,4.30
2023-03-11T03:59:46.285Z,5.53
2023-03-11T04:02:17.090Z,5.17
2023-03-11T04:04:47.110Z,4.40
2023-03-11T04:07:16.388Z,4.97
2023-03-11T04:09:46.016Z,4.13
2023-03-11T04:12:18.108Z,3.80
2023-03-11T04:14:48.709Z,4.07
2023-03-11T04:17:19.137Z,4.70
2023-03-11T04:19:48.923Z,4.67
2023-03-11T04:22:18.284Z,4.57
2023-03-11T04:24:47.898Z,4.30
2023-03-11T04:27:16.981Z,4.77
2023-03-11T04:29:46.034Z,5.00
2023-03-11T04:32:15.231Z,4.60
2023-03-11T04:34:46.615Z,4.37
2023-03-11T04:37:17.105Z,5.23
2023-03-11T04:39:46.577Z,4.90
2023-03-11T04:42:15.732Z,4.20
2023-03-11T04:44:46.160Z,4.67
2023-03-11T04:47:15.346Z,4.07
2023-03-11T04:49:45.827Z,5.03
2023-03-11T04:52:15.270Z,4.47
2023-03-11T04:54:44.793Z,3.90
2023-03-11T04:57:14.030Z,4.10
2023-03-11T04:59:45.719Z,4.07
2023-03-11T05:02:16.676Z,4.13
2023-03-11T05:04:54.704Z,3.37
2023-03-11T05:07:24.220Z,3.83
2023-03-11T05:09:54.096Z,4.67
2023-03-11T05:12:23.141Z,3.33
2023-03-11T05:14:54.949Z,3.50
2023-03-11T05:17:25.035Z,4.10
2023-03-11T05:19:57.518Z,4.67
2023-03-11T05:22:31.963Z,3.83
2023-03-11T05:25:01.214Z,3.90
2023-03-11T05:27:30.482Z,4.60
2023-03-11T05:30:00.131Z,4.90
2023-03-11T05:32:32.386Z,4.00
2023-03-11T05:35:03.004Z,3.90
2023-03-11T05:37:33.155Z,3.57
2023-03-11T05:40:06.689Z,4.00
2023-03-11T05:42:36.699Z,3.73
2023-03-11T05:45:07.002Z,3.77
2023-03-11T05:47:37.009Z,4.93
2023-03-11T05:50:10.048Z,3.90
2023-03-11T05:52:40.025Z,4.63
2023-03-11T05:55:12.166Z,4.37
2023-03-11T05:57:43.066Z,4.53
2023-03-11T06:00:13.133Z,4.13
2023-03-11T06:02:50.385Z,5.23
2023-03-11T06:05:22.909Z,4.77
2023-03-11T06:07:53.595Z,4.27
2023-03-11T06:10:24.583Z,5.37
2023-03-11T06:12:54.438Z,4.40
2023-03-11T06:15:29.654Z,4.23
2023-03-11T06:17:59.525Z,4.10
2023-03-11T06:20:30.207Z,4.27
2023-03-11T06:22:59.391Z,4.63
2023-03-11T06:25:29.564Z,4.07
2023-03-11T06:27:58.808Z,3.97
2023-03-11T06:30:27.985Z,3.67
2023-03-11T06:33:17.364Z,4.30
2023-03-11T06:35:58.512Z,3.67
2023-03-11T06:38:28.071Z,4.30
2023-03-11T06:41:00.956Z,4.57
2023-03-11T06:43:31.198Z,4.83
2023-03-11T06:46:02.332Z,3.67
2023-03-11T06:48:31.628Z,4.73
2023-03-11T06:51:03.100Z,4.43
2023-03-11T06:53:33.088Z,4.13
2023-03-11T06:56:04.614Z,3.50
2023-03-11T06:58:38.751Z,3.67
2023-03-11T07:01:11.926Z,5.17
2023-03-11T07:03:42.461Z,4.33
2023-03-11T07:06:16.563Z,3.73
2023-03-11T07:08:47.370Z,3.77
2023-03-11T07:11:19.270Z,3.10
2023-03-11T07:13:51.000Z,3.50
2023-03-11T07:16:21.842Z,4.67
2023-03-11T07:18:54.070Z,3.93
2023-03-11T07:21:25.292Z,4.83
2023-03-11T07:23:55.822Z,4.23
2023-03-11T07:26:26.038Z,4.60
2023-03-11T07:28:57.391Z,4.90
2023-03-11T07:31:29.251Z,4.90
2023-03-11T07:34:01.516Z,4.43
2023-03-11T07:36:33.008Z,4.97
2023-03-11T07:39:04.920Z,4.00
2023-03-11T07:41:35.763Z,5.17
2023-03-11T07:44:06.572Z,5.10
2023-03-11T07:46:36.334Z,4.53
2023-03-11T07:49:05.814Z,3.97
2023-03-11T07:51:38.448Z,4.10
2023-03-11T07:54:07.969Z,5.10
2023-03-11T07:56:38.840Z,4.23
2023-03-11T07:59:08.441Z,4.80
2023-03-11T08:01:40.641Z,3.53
2023-03-11T08:04:14.411Z,4.03
2023-03-11T08:06:47.422Z,3.93
2023-03-11T08:09:16.837Z,4.43
2023-03-11T08:11:47.153Z,4.20
2023-03-11T08:14:17.182Z,3.97
2023-03-11T08:16:46.180Z,4.13
2023-03-11T08:19:15.710Z,4.17
2023-03-11T08:21:47.317Z,4.23
2023-03-11T08:24:16.802Z,5.13
2023-03-11T08:26:46.196Z,4.80
2023-03-11T08:29:15.268Z,4.67
2023-03-11T08:31:44.320Z,4.87
2023-03-11T08:34:13.678Z,4.40
2023-03-11T08:36:43.275Z,4.90
2023-03-11T08:39:13.720Z,3.60
2023-03-11T08:41:42.794Z,6.67
2023-03-11T08:44:11.847Z,5.67
2023-03-11T08:46:41.057Z,3.50
2023-03-11T08:49:10.272Z,4.60
2023-03-11T08:51:39.396Z,3.37
2023-03-11T08:54:08.521Z,4.03
2023-03-11T08:56:38.980Z,3.30
2023-03-11T08:59:08.533Z,3.33
2023-03-11T09:01:37.590Z,3.63
2023-03-11T09:04:07.076Z,3.30
2023-03-11T09:06:36.400Z,3.40
2023-03-11T09:09:05.689Z,3.20
2023-03-11T09:11:37.317Z,2.83
2023-03-11T09:14:07.974Z,3.13
2023-03-11T09:16:37.027Z,3.27
2023-03-11T09:19:07.464Z,3.33
2023-03-11T09:21:37.390Z,3.27
2023-03-11T09:24:07.359Z,3.53
2023-03-11T09:26:36.579Z,2.80
2023-03-11T09:29:06.951Z,2.93
2023-03-11T09:31:36.024Z,3.87
2023-03-11T09:34:05.068Z,5.13
2023-03-11T09:36:34.648Z,3.97
2023-03-11T09:39:03.698Z,4.03
2023-03-11T09:41:55.222Z,3.10
2023-03-11T09:44:35.217Z,2.77
2023-03-11T09:47:37.679Z,3.27
2023-03-11T09:50:21.399Z,2.30
2023-03-11T09:53:00.745Z,2.10
2023-03-11T09:55:37.690Z,2.30
2023-03-11T09:58:14.099Z,2.60
2023-03-11T10:00:45.236Z,2.10
2023-03-11T10:03:30.004Z,2.00
2023-03-11T10:06:12.637Z,1.50
2023-03-11T10:08:48.591Z,1.90
2023-03-11T10:11:28.506Z,2.00
2023-03-11T10:14:11.770Z,1.63
2023-03-11T10:16:51.494Z,1.73
2023-03-11T10:19:31.950Z,1.30
2023-03-11T10:22:13.512Z,1.70
2023-03-11T10:24:53.760Z,1.73
2023-03-11T10:27:27.639Z,1.33
2023-03-11T10:30:03.256Z,1.40
2023-03-11T10:32:41.015Z,1.50
2023-03-11T10:35:18.713Z,1.63
2023-03-11T10:37:54.459Z,1.63
2023-03-11T10:40:31.407Z,1.50
2023-03-11T10:43:04.105Z,1.23
2023-03-11T10:45:41.360Z,2.13
2023-03-11T10:48:13.451Z,2.57
2023-03-11T10:50:53.402Z,1.55
2023-03-11T10:53:23.208Z,1.43
2023-03-11T10:55:54.222Z,2.53
2023-03-11T10:58:25.007Z,3.90
2023-03-11T11:01:06.193Z,1.77
2023-03-11T11:03:37.246Z,1.83
2023-03-11T11:06:08.198Z,1.40
2023-03-11T11:08:37.324Z,1.30
2023-03-11T11:11:20.845Z,1.00
2023-03-11T11:13:58.471Z,1.20
2023-03-11T11:16:28.209Z,1.30
2023-03-11T11:19:04.356Z,1.80
2023-03-11T11:21:37.136Z,2.33
2023-03-11T11:24:16.336Z,1.50
2023-03-11T11:27:05.353Z,1.50
2023-03-11T11:29:35.152Z,1.50
2023-03-11T11:32:25.430Z,1.27
2023-03-11T11:35:03.980Z,1.30
2023-03-11T11:37:36.694Z,1.40
2023-03-11T11:40:11.488Z,1.50
2023-03-11T11:42:42.295Z,1.58
2023-03-11T11:45:17.366Z,1.63
2023-03-11T11:47:50.012Z,1.42
2023-03-11T11:50:28.956Z,1.63
2023-03-11T11:53:04.573Z,1.40
2023-03-11T11:55:34.934Z,1.27
2023-03-11T11:58:05.454Z,1.67
2023-03-11T12:00:43.646Z,1.55
2023-03-11T12:03:45.515Z,1.13
2023-03-11T12:06:25.455Z,1.27
2023-03-11T12:09:14.708Z,1.27
2023-03-11T12:11:50.483Z,1.08
2023-03-11T12:14:26.425Z,1.27
2023-03-11T12:17:00.216Z,4.25
2023-03-11T12:19:41.030Z,5.07
2023-03-11T12:22:46.950Z,1.80
2023-03-11T12:25:26.534Z,0.80
2023-03-11T12:28:04.149Z,2.50
2023-03-11T12:30:38.232Z,2.17
2023-03-11T12:33:14.735Z,1.00
2023-03-11T12:35:50.810Z,0.93
2023-03-11T12:38:27.979Z,1.10
2023-03-11T12:41:06.870Z,1.30
2023-03-11T12:44:03.450Z,0.80
2023-03-11T12:47:11.870Z,0.50
2023-03-11T12:49:43.217Z,2.27
2023-03-11T12:52:22.981Z,1.53
2023-03-11T12:55:38.116Z,1.13
2023-03-11T12:58:45.481Z,1.30
2023-03-11T13:01:25.786Z,0.77
2023-03-11T13:04:24.428Z,1.97
2023-03-11T13:07:26.694Z,1.35
2023-03-11T13:10:12.900Z,0.77
2023-03-11T13:12:44.629Z,1.00
2023-03-11T13:15:37.945Z,0.70
2023-03-11T13:18:18.857Z,0.52
2023-03-11T13:20:51.523Z,0.57
2023-03-11T13:23:30.995Z,1.10
2023-03-11T13:26:41.555Z,0.70
2023-03-11T13:29:45.442Z,0.67
2023-03-11T13:32:30.934Z,0.50
2023-03-11T13:35:11.876Z,0.50
2023-03-11T13:37:55.227Z,0.90
2023-03-11T13:40:34.011Z,1.07
2023-03-11T13:43:06.495Z,0.70
2023-03-11T13:45:37.472Z,0.57
2023-03-11T13:48:15.147Z,0.77
2023-03-11T13:50:50.229Z,1.30
2023-03-11T13:53:23.751Z,0.50
2023-03-11T13:55:52.910Z,0.60
2023-03-11T13:58:25.683Z,0.40
2023-03-11T14:00:56.498Z,1.50
2023-03-11T14:03:27.897Z,0.73
2023-03-11T14:06:02.970Z,0.70
2023-03-11T14:08:34.869Z,0.60
2023-03-11T14:11:05.514Z,0.60
2023-03-11T14:13:41.319Z,1.00
2023-03-11T14:16:15.657Z,0.80
2023-03-11T14:18:46.413Z,1.10
2023-03-11T14:21:17.976Z,0.73
2023-03-11T14:23:49.494Z,0.70
2023-03-11T14:26:21.781Z,0.70
2023-03-11T14:28:54.215Z,0.40
2023-03-11T14:31:29.957Z,0.63
2023-03-11T14:34:04.326Z,1.20
2023-03-11T14:36:42.452Z,1.00
2023-03-11T14:39:33.142Z,0.50
2023-03-11T14:42:07.788Z,1.63
2023-03-11T14:44:42.256Z,0.43
2023-03-11T14:47:18.282Z,1.10
2023-03-11T14:49:49.657Z,0.97
2023-03-11T14:52:22.487Z,0.97
2023-03-11T14:54:53.701Z,1.00
2023-03-11T14:57:26.784Z,0.60
2023-03-11T14:59:58.720Z,0.70
2023-03-11T15:02:43.693Z,1.00
2023-03-11T15:05:21.008Z,1.87
2023-03-11T15:07:52.610Z,0.80
2023-03-11T15:10:21.869Z,0.53
2023-03-11T15:12:51.227Z,0.60
2023-03-11T15:15:31.258Z,0.80
2023-03-11T15:18:01.740Z,0.83
2023-03-11T15:20:32.985Z,1.10
2023-03-11T15:23:04.773Z,0.90
2023-03-11T15:25:35.438Z,0.97
2023-03-11T15:28:24.239Z,1.03
2023-03-11T15:31:31.021Z,1.10
2023-03-11T15:34:25.053Z,0.90
2023-03-11T15:37:03.574Z,1.03
2023-03-11T15:39:47.313Z,1.00
2023-03-11T15:42:21.449Z,1.40
2023-03-11T15:45:10.004Z,3.33
2023-03-11T15:47:40.971Z,1.60
2023-03-11T15:50:24.792Z,1.10
2023-03-11T15:52:56.859Z,1.07
2023-03-11T15:55:27.690Z,0.93
2023-03-11T15:58:03.203Z,1.03
2023-03-11T16:00:32.514Z,2.50
2023-03-11T16:03:03.037Z,0.67
2023-03-11T16:05:32.175Z,0.50
2023-03-11T16:08:01.278Z,0.40
2023-03-11T16:10:30.281Z,0.70
2023-03-11T16:12:59.324Z,0.93
2023-03-11T16:15:31.090Z,1.67
2023-03-11T16:18:04.028Z,0.60
2023-03-11T16:20:38.639Z,0.73
2023-03-11T16:23:13.827Z,1.30
2023-03-11T16:25:42.894Z,1.07
2023-03-11T16:28:14.086Z,1.00
2023-03-11T16:30:43.620Z,0.70
2023-03-11T16:33:14.025Z,0.83
2023-03-11T16:35:43.313Z,0.80
2023-03-11T16:38:12.617Z,0.77
2023-03-11T16:40:41.834Z,0.83
2023-03-11T16:43:13.516Z,0.97
2023-03-11T16:47:48.409Z,1.00
2023-03-11T16:50:18.504Z,1.00
2023-03-11T16:52:47.767Z,1.00
2023-03-11T16:55:17.723Z,0.97
2023-03-11T16:57:47.322Z,1.77
2023-03-11T17:00:18.219Z,1.63
2023-03-11T17:02:48.826Z,8.17
2023-03-11T17:05:18.465Z,1.70
2023-03-11T17:07:47.563Z,1.43
2023-03-11T17:10:16.596Z,1.77
2023-03-11T17:12:45.635Z,2.90
2023-03-11T17:15:14.742Z,2.07
2023-03-11T17:17:43.714Z,2.33
2023-03-11T17:20:14.865Z,2.30
2023-03-11T17:22:43.903Z,1.37
2023-03-11T17:25:12.935Z,1.20
2023-03-11T17:27:42.001Z,0.87
2023-03-11T17:30:12.723Z,1.63
2023-03-11T17:32:41.863Z,1.90
2023-03-11T17:35:12.848Z,2.00
2023-03-11T17:37:41.921Z,2.90
2023-03-11T17:40:12.022Z,1.90
2023-03-11T17:42:41.237Z,1.57
2023-03-11T17:45:11.194Z,2.10
2023-03-11T17:47:40.253Z,1.63
2023-03-11T17:50:10.207Z,1.40
2023-03-11T17:52:40.587Z,1.70
2023-03-11T17:55:10.648Z,2.87
2023-03-11T17:57:45.601Z,1.60
2023-03-11T18:00:15.812Z,1.47
2023-03-11T18:02:44.869Z,1.57
2023-03-11T18:05:14.025Z,2.37
2023-03-11T18:07:44.459Z,2.10
2023-03-11T18:10:18.414Z,2.03
2023-03-11T18:12:48.484Z,1.53
2023-03-11T18:15:19.497Z,2.47
2023-03-11T18:17:49.608Z,3.23
2023-03-11T18:20:18.936Z,1.60
2023-03-11T18:22:49.313Z,1.90
2023-03-11T18:25:18.398Z,1.83
2023-03-11T18:27:47.395Z,2.17
2023-03-11T18:30:16.617Z,2.10
2023-03-11T18:32:45.804Z,2.90
2023-03-11T18:35:17.330Z,1.83
2023-03-11T18:37:47.664Z,4.47
2023-03-11T18:40:16.778Z,3.13
2023-03-11T18:42:45.867Z,2.30
2023-03-11T18:45:14.946Z,1.57
2023-03-11T18:47:43.961Z,2.40
2023-03-11T18:50:13.664Z,4.40
2023-03-11T18:52:42.690Z,2.03
2023-03-11T18:55:13.264Z,2.03
2023-03-11T18:57:43.299Z,1.43
2023-03-11T19:00:13.325Z,5.93
2023-03-11T19:02:42.388Z,2.40
2023-03-11T19:05:12.221Z,1.60
2023-03-11T19:07:41.309Z,1.20
2023-03-11T19:10:14.836Z,2.50
2023-03-11T19:12:44.939Z,1.90
2023-03-11T19:15:14.902Z,1.93
2023-03-11T19:17:45.509Z,2.57
2023-03-11T19:20:19.066Z,2.67
2023-03-11T19:22:48.184Z,2.07
2023-03-11T19:25:21.085Z,1.73
2023-03-11T19:27:50.095Z,2.10
2023-03-11T19:30:19.666Z,1.60
2023-03-11T19:32:51.897Z,1.80
2023-03-11T19:35:21.856Z,1.87
2023-03-11T19:37:56.747Z,1.30
2023-03-11T19:40:29.972Z,1.90
2023-03-11T19:42:59.284Z,1.87
2023-03-11T19:45:29.556Z,1.50
2023-03-11T19:47:59.906Z,1.30
2023-03-11T19:50:29.060Z,1.27
2023-03-11T19:52:58.095Z,1.27
2023-03-11T19:55:28.542Z,1.57
2023-03-11T19:57:57.674Z,1.23
2023-03-11T20:00:29.266Z,2.37
2023-03-11T20:02:58.469Z,1.30
2023-03-11T20:05:27.839Z,1.10
2023-03-11T20:07:57.058Z,1.47
2023-03-11T20:10:27.613Z,1.43
2023-03-11T20:13:02.473Z,1.83
2023-03-11T20:15:32.324Z,1.20
2023-03-11T20:18:03.560Z,1.13
2023-03-11T20:20:33.533Z,1.43
2023-03-11T20:23:02.937Z,1.70
2023-03-11T20:25:34.844Z,1.70
2023-03-11T20:28:04.044Z,1.50
2023-03-11T20:30:33.244Z,1.63
2023-03-11T20:33:02.680Z,2.10
2023-03-11T20:35:31.768Z,1.70
2023-03-11T20:38:02.718Z,1.80
2023-03-11T20:40:33.425Z,1.90
2023-03-11T20:43:02.894Z,1.60
2023-03-11T20:45:31.938Z,1.80
2023-03-11T20:48:01.093Z,1.23
2023-03-11T20:50:30.326Z,1.40
2023-03-11T20:52:59.450Z,1.83
2023-03-11T20:55:28.556Z,1.43
2023-03-11T20:57:58.996Z,1.60
2023-03-11T21:00:28.184Z,1.70
2023-03-11T21:02:57.303Z,1.53
2023-03-11T21:05:26.683Z,1.33
2023-03-11T21:07:55.880Z,1.80
2023-03-11T21:10:24.949Z,1.30
2023-03-11T21:12:54.008Z,1.77
2023-03-11T21:15:24.436Z,1.57
2023-03-11T21:17:53.473Z,1.10
2023-03-11T21:20:22.920Z,1.60
2023-03-11T21:22:51.916Z,1.27
2023-03-11T21:25:21.227Z,1.53
2023-03-11T21:27:50.405Z,1.50
2023-03-11T21:30:19.741Z,1.90
2023-03-11T21:32:50.386Z,2.30
2023-03-11T21:35:19.703Z,2.03
2023-03-11T21:37:48.795Z,1.83
2023-03-11T21:40:18.184Z,2.10
2023-03-11T21:42:47.438Z,2.40
2023-03-11T21:45:17.350Z,2.40
2023-03-11T21:47:46.781Z,1.83
2023-03-11T21:50:17.433Z,1.60
2023-03-11T21:52:46.685Z,2.10
2023-03-11T21:55:15.809Z,2.03
2023-03-11T21:57:45.152Z,1.90
2023-03-11T22:00:14.918Z,1.73
2023-03-11T22:02:44.099Z,1.73
2023-03-11T22:05:13.352Z,1.60
2023-03-11T22:07:43.989Z,1.53
2023-03-11T22:10:13.506Z,1.70
2023-03-11T22:12:43.016Z,1.53
2023-03-11T22:15:12.834Z,2.23
2023-03-11T22:17:42.086Z,2.63
2023-03-11T22:20:13.479Z,1.30
2023-03-11T22:22:44.013Z,1.60
2023-03-11T22:25:13.104Z,1.33
2023-03-11T22:27:42.315Z,1.60
2023-03-11T22:30:15.282Z,1.57
2023-03-11T22:32:44.928Z,1.70
2023-03-11T22:35:14.223Z,1.10
2023-03-11T22:37:44.955Z,1.40
2023-03-11T22:40:14.631Z,1.87
2023-03-11T22:42:43.712Z,1.83
2023-03-11T22:45:13.202Z,1.43
2023-03-11T22:47:42.513Z,1.73
2023-03-11T22:50:12.239Z,1.70
2023-03-11T22:52:41.291Z,5.87
2023-03-11T22:55:12.245Z,3.00
2023-03-11T22:57:41.318Z,1.60
2023-03-11T23:00:17.007Z,1.53
2023-03-11T23:02:46.852Z,1.37
2023-03-11T23:05:16.686Z,1.83
2023-03-11T23:07:45.984Z,1.87
2023-03-11T23:10:19.728Z,1.60
2023-03-11T23:12:50.169Z,1.53
2023-03-11T23:15:20.216Z,1.57
2023-03-11T23:17:49.268Z,1.97
2023-03-11T23:20:18.886Z,2.33
2023-03-11T23:22:47.921Z,2.00
2023-03-11T23:25:19.412Z,2.20
2023-03-11T23:27:48.410Z,1.77
2023-03-11T23:30:18.891Z,1.70
2023-03-11T23:32:47.963Z,1.53
2023-03-11T23:35:17.004Z,1.90
2023-03-11T23:37:49.051Z,1.87
2023-03-11T23:40:19.787Z,2.30
2023-03-11T23:42:50.646Z,2.37
2023-03-11T23:45:19.862Z,2.37
2023-03-11T23:47:48.868Z,2.37
2023-03-11T23:50:18.433Z,3.10
2023-03-11T23:52:47.487Z,2.93
2023-03-11T23:55:18.010Z,2.83
2023-03-11T23:57:47.095Z,2.40
